Qualay Squallum — WDH2286 — position and weather

sailwx.info

Track history (hours):
 
Tides and Currents Weather Stations Pressure Air Temp Water Temp Dewpoint Dewpoint Depression Visibility Wind Speed Wind Dir Waves Ship Positions

Qualay Squallum

Owner: Winn, Christine L, Hoquiam, WA. More information available from US FCC via Universal Licensing System and Coast Guard Vessel Documentation Center.

Last reported at 2017-Nov-17 16:25 UTC. Time now 2017-Dec-16 01:48 UTC.
Position N 46°54' W 124°06'.
Warning: this ship's position is 28 days out of date.

Length 20 m; draft 3 m.

Type: Fishing. MMSI: 338396000.

Date/timePositionNaut miles runAvg speedWind from/ knotsBaromVisibWave heightAir tempDewpointWater temp
2017-Nov-17 16:25N 46°54' W 124°06'0 0.0
2017-Nov-17 14:39N 46°54' W 124°06'0 0.0
2017-Nov-17 12:34N 46°54' W 124°06'0 0.0
2017-Nov-17 11:47N 46°54' W 124°06'0 0.0
2017-Nov-17 11:29N 46°54' W 124°06'0 0.0
2017-Nov-17 10:56N 46°54' W 124°06'0 0.0
2017-Nov-17 10:14N 46°54' W 124°06'0 0.0
2017-Nov-17 09:56N 46°54' W 124°06'0 0.0
2017-Nov-17 09:28N 46°54' W 124°06'0 0.0
2017-Nov-17 08:46N 46°54' W 124°06'0 0.0
2017-Nov-17 08:25N 46°54' W 124°06'0 0.0
2017-Nov-17 06:47N 46°54' W 124°06'0 0.0
2017-Nov-17 06:28N 46°54' W 124°06'2 0.1
2017-Nov-16 10:44N 46°55' W 124°09'1 4.6
2017-Nov-16 10:30N 46°55' W 124°11'3 6.3
2017-Nov-16 10:00N 46°55' W 124°16'86 6.1
2017-Nov-15 19:55N 48°18' W 124°47'3 6.4
2017-Nov-15 19:28N 48°20' W 124°47'3 5.9
2017-Nov-15 18:57N 48°23' W 124°46'3 5.7
2017-Nov-15 18:27N 48°24' W 124°42'3 7.3
2017-Nov-15 18:01N 48°24' W 124°37'1 2.6
2017-Nov-15 17:28N 48°22' W 124°37'0 0.0
2017-Nov-15 17:00N 48°22' W 124°37'0 0.0
2017-Nov-15 16:18N 48°22' W 124°37'0 0.0
2017-Nov-15 15:57N 48°22' W 124°37'0 0.0
2017-Nov-15 15:28N 48°22' W 124°37'0 0.0
2017-Nov-15 15:00N 48°22' W 124°37'0 0.0
2017-Nov-15 14:29N 48°22' W 124°37'0 0.0
2017-Nov-15 13:58N 48°22' W 124°37'0 0.0
2017-Nov-15 13:28N 48°22' W 124°37'1 3.1
2017-Nov-15 13:00N 48°24' W 124°36'4 6.7
2017-Nov-15 12:28N 48°24' W 124°42'3 6.3
2017-Nov-15 11:58N 48°25' W 124°46'4 8.7
2017-Nov-15 11:28N 48°21' W 124°48'2 4.4
2017-Nov-15 10:58N 48°23' W 124°48'2 5.2
2017-Nov-15 10:30N 48°25' W 124°47'3 5.8
2017-Nov-15 10:00N 48°26' W 124°43'3 6.3
2017-Nov-15 09:30N 48°26' W 124°38'3 6.9
2017-Nov-15 09:00N 48°24' W 124°33'4 7.0
2017-Nov-15 08:30N 48°22' W 124°29'3 6.7
2017-Nov-15 08:00N 48°21' W 124°24'4 6.2
2017-Nov-15 07:22N 48°19' W 124°19'2 6.1
2017-Nov-15 07:00N 48°18' W 124°16'16 6.5
2017-Nov-15 04:38N 48°13' W 123°54'2 7.2
2017-Nov-15 04:17N 48°12' W 123°51'2 7.6
2017-Nov-15 04:00N 48°12' W 123°47'4 7.9
2017-Nov-15 03:30N 48°11' W 123°41'4 8.2
2017-Nov-15 03:00N 48°11' W 123°35'5 9.0
2017-Nov-15 02:30N 48°10' W 123°29'4 7.7
2017-Nov-15 02:00N 48°08' W 123°24'2 0.4
2017-Nov-14 20:22N 48°08' W 123°27'  
Track history (hours):
 
Tides and Currents Weather Stations Pressure Air Temp Water Temp Dewpoint Dewpoint Depression Visibility Wind Speed Wind Dir Waves Ship Positions

Qualay Squallum

Owner: Winn, Christine L, Hoquiam, WA. More information available from US FCC via Universal Licensing System and Coast Guard Vessel Documentation Center.

Last reported at 2017-Nov-17 16:25 UTC. Time now 2017-Dec-16 01:48 UTC.
Position N 46°54' W 124°06'.
Warning: this ship's position is 28 days out of date.

Length 20 m; draft 3 m.

Type: Fishing. MMSI: 338396000.

Date/timePositionNaut miles runAvg speedWind from/ knotsBaromVisibWave heightAir tempDewpointWater temp
2017-Nov-17 16:25N 46°54' W 124°06'0 0.0
2017-Nov-17 14:39N 46°54' W 124°06'0 0.0
2017-Nov-17 12:34N 46°54' W 124°06'0 0.0
2017-Nov-17 11:47N 46°54' W 124°06'0 0.0
2017-Nov-17 11:29N 46°54' W 124°06'0 0.0
2017-Nov-17 10:56N 46°54' W 124°06'0 0.0
2017-Nov-17 10:14N 46°54' W 124°06'0 0.0
2017-Nov-17 09:56N 46°54' W 124°06'0 0.0
2017-Nov-17 09:28N 46°54' W 124°06'0 0.0
2017-Nov-17 08:46N 46°54' W 124°06'0 0.0
2017-Nov-17 08:25N 46°54' W 124°06'0 0.0
2017-Nov-17 06:47N 46°54' W 124°06'0 0.0
2017-Nov-17 06:28N 46°54' W 124°06'2 0.1
2017-Nov-16 10:44N 46°55' W 124°09'1 4.6
2017-Nov-16 10:30N 46°55' W 124°11'3 6.3
2017-Nov-16 10:00N 46°55' W 124°16'86 6.1
2017-Nov-15 19:55N 48°18' W 124°47'3 6.4
2017-Nov-15 19:28N 48°20' W 124°47'3 5.9
2017-Nov-15 18:57N 48°23' W 124°46'3 5.7
2017-Nov-15 18:27N 48°24' W 124°42'3 7.3
2017-Nov-15 18:01N 48°24' W 124°37'1 2.6
2017-Nov-15 17:28N 48°22' W 124°37'0 0.0
2017-Nov-15 17:00N 48°22' W 124°37'0 0.0
2017-Nov-15 16:18N 48°22' W 124°37'0 0.0
2017-Nov-15 15:57N 48°22' W 124°37'0 0.0
2017-Nov-15 15:28N 48°22' W 124°37'0 0.0
2017-Nov-15 15:00N 48°22' W 124°37'0 0.0
2017-Nov-15 14:29N 48°22' W 124°37'0 0.0
2017-Nov-15 13:58N 48°22' W 124°37'0 0.0
2017-Nov-15 13:28N 48°22' W 124°37'1 3.1
2017-Nov-15 13:00N 48°24' W 124°36'4 6.7
2017-Nov-15 12:28N 48°24' W 124°42'3 6.3
2017-Nov-15 11:58N 48°25' W 124°46'4 8.7
2017-Nov-15 11:28N 48°21' W 124°48'2 4.4
2017-Nov-15 10:58N 48°23' W 124°48'2 5.2
2017-Nov-15 10:30N 48°25' W 124°47'3 5.8
2017-Nov-15 10:00N 48°26' W 124°43'3 6.3
2017-Nov-15 09:30N 48°26' W 124°38'3 6.9
2017-Nov-15 09:00N 48°24' W 124°33'4 7.0
2017-Nov-15 08:30N 48°22' W 124°29'3 6.7
2017-Nov-15 08:00N 48°21' W 124°24'4 6.2
2017-Nov-15 07:22N 48°19' W 124°19'2 6.1
2017-Nov-15 07:00N 48°18' W 124°16'16 6.5
2017-Nov-15 04:38N 48°13' W 123°54'2 7.2
2017-Nov-15 04:17N 48°12' W 123°51'2 7.6
2017-Nov-15 04:00N 48°12' W 123°47'4 7.9
2017-Nov-15 03:30N 48°11' W 123°41'4 8.2
2017-Nov-15 03:00N 48°11' W 123°35'5 9.0
2017-Nov-15 02:30N 48°10' W 123°29'4 7.7
2017-Nov-15 02:00N 48°08' W 123°24'2 0.4
2017-Nov-14 20:22N 48°08' W 123°27'  

Dump ship's entire track history